Latest Weather Observations for Ferny Creek

IDV60901

Issued at 2:21 pm EDT Tuesday 31 March 2015 (issued every 10 minutes, with the page automatically refreshed every 10 minutes)

About weather observations | Map of Melbourne area stations | Latest observations for Melbourne area | Other Formats
Station Details ID: 086266 Name: FERNY CREEK Lat: -37.87 Lon: 145.35 Height: 512.9 m
Data from the previous 72 hours. | See also: Recent months at Ferny Creek
Date/Time
EDT
Tmp

°C
App
Tmp
°C
Dew
Point
°C
Rel
Hum
%
Delta-T

°C
Wind Press
QNH
hPa
Press
MSL
hPa
Rain
since
9 am
mm
Dir
 
Spd
km/h
Gust
km/h
Spd
kts
Gust
kts
31/02:00pm 20.5 19.3 9.4 49 6.0 NW 6 11 3 6 1024.9 1023.9 0.0
31/01:30pm 20.7 19.5 10.2 51 5.8 NNW 7 15 4 8 1025.4 1024.3 0.0
31/01:00pm 20.6 20.0 11.8 57 5.0 NW 6 9 3 5 1025.9 1024.8 0.0
31/12:30pm 20.4 20.2 11.9 58 4.8 ENE 4 7 2 4 1026.1 1025.1 0.0
31/12:00pm 19.0 18.2 11.1 60 4.4 ENE 6 11 3 6 1026.6 1025.6 0.0
31/11:30am 18.3 17.3 11.1 63 4.0 ENE 7 11 4 6 1027.0 1026.0 0.0
31/11:00am 18.4 17.9 11.9 66 3.7 E 6 9 3 5 1027.7 1026.7 0.0
31/10:30am 17.3 16.3 10.4 64 3.8 ENE 6 9 3 5 1027.5 1026.4 0.0
31/10:00am 17.3 16.5 11.1 67 3.4 E 6 9 3 5 1027.4 1026.3 0.0
31/09:30am 16.6 16.1 10.7 68 3.2 ENE 4 7 2 4 1027.3 1026.2 0.0
31/09:00am 15.8 15.3 10.6 71 2.8 E 4 7 2 4 1027.2 1026.1 0.0
31/08:30am 14.5 14.4 10.7 78 2.0 ESE 2 4 1 2 1026.8 1025.8 0.0
31/08:00am 12.1 11.7 9.8 86 1.2 SSE 2 6 1 3 1026.6 1025.6 0.0
31/07:30am 11.6 11.0 9.0 84 1.3 SE 2 4 1 2 1026.4 1025.4 0.0
31/07:00am 11.4 10.6 8.1 80 1.7 SE 2 4 1 2 1026.0 1025.0 0.0
31/06:30am 11.8 11.7 9.4 85 1.2 CALM 0 4 0 2 1025.9 1024.8 0.0
31/06:00am 11.6 11.1 9.3 86 1.2 E 2 4 1 2 1025.8 1024.7 0.0
31/05:30am 11.9 11.1 9.5 85 1.2 E 4 6 2 3 1025.7 1024.6 0.0
31/05:00am 11.7 10.8 9.3 85 1.2 E 4 6 2 3 1025.6 1024.5 0.0
31/04:30am 11.7 11.2 9.4 86 1.2 ESE 2 4 1 2 1025.8 1024.7 0.0
31/04:00am 11.4 10.8 9.1 86 1.2 ESE 2 2 1 1 1025.9 1024.8 0.0
31/03:30am 11.5 10.6 9.1 85 1.2 E 4 6 2 3 1026.0 1025.0 0.0
31/03:00am 11.7 10.7 8.9 83 1.4 E 4 6 2 3 1026.1 1025.1 0.0
31/02:30am 11.8 11.1 8.5 80 1.7 ESE 2 4 1 2 1026.3 1025.3 0.0
31/02:00am 12.1 10.8 7.6 74 2.2 SE 4 6 2 3 1026.4 1025.4 0.0
31/01:30am 11.8 10.5 7.5 75 2.1 E 4 7 2 4 1026.5 1025.5 0.0
31/01:00am 11.9 10.6 7.6 75 2.1 E 4 7 2 4 1026.5 1025.5 0.0
31/12:30am 12.1 10.4 7.4 73 2.3 E 6 9 3 5 1026.6 1025.6 0.0
31/12:00am 12.4 10.8 7.9 74 2.3 E 6 11 3 6 1026.8 1025.8 0.0
 
Date/Time
EDT
Tmp

°C
App
Tmp
°C
Dew
Point
°C
Rel
Hum
%
Delta-T

°C
Wind Press
QNH
hPa
Press
MSL
hPa
Rain
since
9 am
mm
Dir
 
Spd
km/h
Gust
km/h
Spd
kts
Gust
kts
30/11:30pm 12.2 10.5 7.7 74 2.3 E 6 9 3 5 1026.9 1025.9 0.0
30/11:00pm 12.4 10.7 7.7 73 2.3 ESE 6 9 3 5 1027.2 1026.1 0.0
30/10:30pm 12.5 10.8 8.2 75 2.2 E 7 13 4 7 1027.0 1026.0 0.0
30/10:00pm 12.9 11.5 8.8 76 2.1 ESE 6 13 3 7 1027.0 1026.0 0.0
30/09:30pm 12.7 11.0 7.6 71 2.6 ESE 6 9 3 5 1027.2 1026.1 0.0
30/09:00pm 12.6 11.4 7.9 73 2.4 E 4 6 2 3 1027.0 1026.0 0.0
30/08:30pm 13.0 12.0 8.9 76 2.1 ESE 4 6 2 3 1026.8 1025.8 0.0
30/08:00pm 13.5 12.6 9.2 75 2.2 ESE 4 7 2 4 1026.3 1025.3 0.0
30/07:30pm 13.9 13.5 9.7 76 2.2 ESE 2 6 1 3 1025.9 1024.8 0.0
30/07:00pm 14.8 14.1 10.2 74 2.5 ESE 4 7 2 4 1025.9 1024.8 0.0
30/06:30pm 15.9 15.3 10.4 70 3.0 SE 4 9 2 5 1025.5 1024.4 0.0
30/06:00pm 17.3 16.1 8.2 55 4.7 S 4 9 2 5 1025.0 1024.0 0.0
30/05:30pm 18.3 17.2 8.3 52 5.3 S 4 9 2 5 1024.7 1023.7 0.0
30/05:00pm 18.6 17.5 8.6 52 5.3 SW 4 9 2 5 1024.6 1023.6 0.0
30/04:30pm 19.2 17.7 8.5 50 5.7 SW 6 13 3 7 1024.5 1023.5 0.0
30/04:00pm 19.6 18.7 9.2 51 5.6 SSW 4 9 2 5 1024.4 1023.4 0.0
30/03:30pm 19.5 18.3 10.2 55 5.1 WSW 7 15 4 8 1024.6 1023.6 0.0
30/03:00pm 20.2 19.3 10.6 54 5.3 WSW 6 13 3 7 1024.7 1023.7 0.0
30/02:30pm 19.4 18.0 8.7 50 5.7 SW 6 13 3 7 1024.7 1023.7 0.0
30/02:00pm 18.4 16.8 8.1 51 5.4 NNW 6 15 3 8 1024.8 1023.8 0.0
30/01:30pm 19.4 18.5 9.3 52 5.5 W 4 11 2 6 1024.9 1023.9 0.0
30/01:00pm 19.6 18.4 9.5 52 5.5 SW 6 11 3 6 1025.3 1024.2 0.0
30/12:30pm 18.7 17.8 9.2 54 5.1 N 4 7 2 4 1025.5 1024.4 0.0
30/12:00pm 19.0 18.4 10.3 57 4.8 W 4 6 2 3 1025.6 1024.5 0.0
30/11:30am 18.4 18.2 10.3 59 4.4 WNW 2 6 1 3 1025.7 1024.6 0.0
30/11:00am 18.1 18.2 10.0 59 4.4 CALM 0 6 0 3 1025.8 1024.7 0.0
30/10:30am 17.1 16.7 9.8 62 3.9 NE 2 4 1 2 1025.6 1024.5 0.0
30/10:00am 16.6 15.8 9.8 64 3.6 ESE 4 6 2 3 1025.4 1024.3 0.0
30/09:30am 16.5 16.4 10.8 69 3.1 ENE 2 4 1 2 1024.9 1023.9 0.0
30/09:00am 16.7 17.1 11.4 71 2.9 CALM 0 0 0 0 1024.7 1023.7 0.0
30/08:30am 13.7 13.5 9.2 74 2.4 CALM 0 0 0 0 1024.4 1023.4 0.0
30/08:00am 11.1 9.9 8.1 82 1.5 WSW 4 4 2 2 1024.2 1023.2 0.0
30/07:30am 11.9 11.4 7.8 76 2.1 CALM 0 0 0 0 1023.7 1022.6 0.0
30/07:00am 11.4 10.8 7.5 77 1.9 CALM 0 2 0 1 1023.5 1022.4 0.0
30/06:30am 11.4 10.7 7.1 75 2.1 CALM 0 2 0 1 1023.3 1022.2 0.0
30/06:00am 11.3 10.7 7.4 77 1.9 CALM 0 0 0 0 1023.2 1022.1 0.0
30/05:30am 11.1 10.3 6.6 74 2.2 CALM 0 0 0 0 1023.2 1022.1 0.0
30/05:00am 11.9 11.2 6.8 71 2.5 CALM 0 2 0 1 1022.9 1021.9 0.0
30/04:30am 11.0 10.3 6.9 76 2.0 CALM 0 4 0 2 1023.1 1022.0 0.0
30/04:00am 10.9 10.2 6.8 76 2.0 CALM 0 0 0 0 1023.3 1022.2 0.0
30/03:30am 11.1 10.3 6.6 74 2.2 CALM 0 0 0 0 1023.4 1022.3 0.0
30/03:00am 11.3 10.6 6.8 74 2.2 CALM 0 0 0 0 1023.6 1022.5 0.0
30/02:30am 10.9 9.7 6.6 75 2.1 ENE 2 4 1 2 1023.8 1022.7 0.0
30/02:00am 11.0 9.5 6.7 75 2.1 E 4 6 2 3 1024.0 1022.9 0.0
30/01:30am 10.9 9.5 7.2 78 1.8 E 4 4 2 2 1024.1 1023.0 0.0
30/01:00am 10.5 9.4 7.0 79 1.7 E 2 6 1 3 1024.2 1023.2 0.0
30/12:30am 10.6 9.6 7.5 81 1.5 ESE 2 4 1 2 1024.3 1023.3 0.0
30/12:00am 10.5 9.2 7.6 82 1.4 E 4 6 2 3 1024.4 1023.4 0.0
 
Date/Time
EDT
Tmp

°C
App
Tmp
°C
Dew
Point
°C
Rel
Hum
%
Delta-T

°C
Wind Press
QNH
hPa
Press
MSL
hPa
Rain
since
9 am
mm
Dir
 
Spd
km/h
Gust
km/h
Spd
kts
Gust
kts
29/11:30pm 10.5 9.2 7.6 82 1.4 ESE 4 4 2 2 1024.6 1023.6 0.0
29/11:00pm 10.9 9.6 7.6 80 1.6 ESE 4 9 2 5 1024.6 1023.6 0.0
29/10:30pm 11.5 9.9 8.0 79 1.8 ESE 6 11 3 6 1024.7 1023.7 0.0
29/10:00pm 11.5 10.2 7.8 78 1.8 ESE 4 7 2 4 1024.5 1023.5 0.0
29/09:30pm 12.0 10.4 7.9 76 2.1 SE 6 13 3 7 1024.3 1023.3 0.0
29/09:00pm 12.1 10.5 8.2 77 2.0 SE 6 11 3 6 1023.9 1022.8 0.0
29/08:30pm 12.3 10.7 8.0 75 2.2 SSE 6 9 3 5 1023.5 1022.4 0.0
29/08:00pm 12.6 11.4 8.1 74 2.3 ESE 4 7 2 4 1023.2 1022.1 0.0
29/07:30pm 13.2 11.7 8.5 73 2.4 ESE 6 9 3 5 1022.7 1021.7 0.0
29/07:00pm 14.8 13.5 9.2 69 2.9 SE 6 13 3 7 1022.3 1021.2 0.0
29/06:30pm 16.4 14.8 7.9 57 4.4 S 6 11 3 6 1021.9 1020.8 0.0
29/06:00pm 17.1 15.9 8.0 55 4.7 SSW 4 7 2 4 1021.8 1020.7 0.0
29/05:30pm 18.4 17.3 8.4 52 5.3 S 4 7 2 4 1021.7 1020.6 0.0
29/05:00pm 19.2 17.9 9.1 52 5.4 SW 6 9 3 5 1021.7 1020.6 0.0
29/04:30pm 19.3 17.8 8.6 50 5.7 SW 6 13 3 7 1021.7 1020.6 0.0
29/04:00pm 18.9 17.5 9.4 54 5.1 SW 7 17 4 9 1021.7 1020.6 0.0
29/03:30pm 18.5 16.9 8.7 53 5.2 SW 7 13 4 7 1021.9 1020.8 0.0
29/03:00pm 19.7 18.7 10.4 55 5.1 SSW 6 11 3 6 1022.0 1020.9 0.0
29/02:30pm 19.6 18.1 8.3 48 6.0 WNW 6 17 3 9 1022.1 1021.0 0.0
29/02:00pm 18.0 16.5 8.6 54 5.0 NW 6 11 3 6 1022.3 1021.2 0.0
29/01:30pm 18.4 17.2 9.5 56 4.8 NW 6 11 3 6 1022.6 1021.6 0.0
29/01:00pm 18.0 16.6 8.8 55 4.9 NW 6 13 3 7 1022.9 1021.9 0.0
29/12:30pm 17.6 16.2 8.7 56 4.7 NNW 6 17 3 9 1023.2 1022.1 0.0
29/12:00pm 16.6 15.0 8.8 60 4.1 NNW 7 11 4 6 1023.5 1022.4 0.0
29/11:30am 16.0 14.3 8.5 61 3.9 NW 7 13 4 7 1023.7 1022.6 0.0
29/11:00am 15.2 13.6 8.2 63 3.6 NW 6 13 3 7 1023.7 1022.6 0.0
29/10:30am 15.2 13.7 8.4 64 3.5 WNW 6 13 3 7 1023.7 1022.6 0.0
29/10:00am 13.8 12.6 8.2 69 2.9 NW 4 7 2 4 1023.9 1022.8 0.0
29/09:30am 13.9 12.2 7.7 66 3.1 NW 6 7 3 4 1023.8 1022.7 0.0
29/09:00am 13.1 11.8 7.5 69 2.8 NW 4 7 2 4 1023.6 1022.5 0.4
29/08:30am 12.2 10.9 7.5 73 2.3 NW 4 7 2 4 1023.4 1022.3 0.4
29/08:00am 11.2 9.3 6.9 75 2.1 NW 6 13 3 7 1023.1 1022.0 0.4
29/07:30am 10.9 9.1 7.0 77 1.9 NW 6 9 3 5 1022.7 1021.7 0.4
29/07:00am 10.3 8.5 7.0 80 1.6 WNW 6 9 3 5 1022.3 1021.2 0.4
29/06:30am 10.6 8.8 7.1 79 1.7 WNW 6 11 3 6 1021.7 1020.6 0.4
29/06:00am 10.7 8.9 7.0 78 1.8 WNW 6 9 3 5 1021.4 1020.3 0.4
29/05:30am 10.9 9.2 7.4 79 1.7 NW 6 9 3 5 1021.1 1020.0 0.4
29/05:00am 9.6 7.9 7.5 87 1.0 NW 6 9 3 5 1021.0 1019.9 0.4
29/04:30am 9.8 8.1 7.7 87 1.0 NW 6 9 3 5 1020.7 1019.6 0.4
29/04:00am 9.7 8.4 7.8 88 0.9 NW 4 7 2 4 1020.7 1019.6 0.4
29/03:30am 9.6 8.4 7.9 89 0.8 NW 4 6 2 3 1021.1 1020.0 0.4
29/03:00am 9.4 8.5 7.8 90 0.8 NNW 2 4 1 2 1021.3 1020.2 0.4
29/02:30am 9.3 8.0 7.7 90 0.8 N 4 4 2 2 1021.7 1020.6 0.4
29/02:00am 8.9 8.3 7.5 91 0.7 CALM 0 0 0 0 1022.0 1020.9 0.2
29/01:30am 9.0 8.4 7.6 91 0.7 CALM 0 0 0 0 1022.3 1021.2 0.2
29/01:00am 9.1 8.6 7.7 91 0.7 CALM 0 0 0 0 1022.4 1021.3 0.2
29/12:30am 9.3 8.8 7.7 90 0.8 CALM 0 0 0 0 1022.5 1021.5 0.2
29/12:00am 9.3 8.7 7.3 87 1.0 CALM 0 0 0 0 1022.7 1021.7 0.2
 
Date/Time
EDT
Tmp

°C
App
Tmp
°C
Dew
Point
°C
Rel
Hum
%
Delta-T

°C
Wind Press
QNH
hPa
Press
MSL
hPa
Rain
since
9 am
mm
Dir
 
Spd
km/h
Gust
km/h
Spd
kts
Gust
kts
28/11:30pm 9.4 8.8 7.3 87 1.0 CALM 0 0 0 0 1022.7 1021.7 0.2
28/11:00pm 9.5 8.9 7.3 86 1.1 CALM 0 0 0 0 1022.6 1021.6 0.2
28/10:30pm 9.0 8.4 7.3 89 0.8 CALM 0 0 0 0 1022.7 1021.7 0.2
28/10:00pm 9.4 8.8 7.5 88 0.9 CALM 0 0 0 0 1022.7 1021.7 0.2
28/09:30pm 9.6 9.1 7.7 88 0.9 CALM 0 0 0 0 1022.8 1021.8 0.2
28/09:00pm 9.4 8.9 7.8 90 0.8 CALM 0 0 0 0 1022.8 1021.8 0.2
28/08:30pm 9.6 9.1 8.0 90 0.8 CALM 0 0 0 0 1022.7 1021.7 0.2
28/08:00pm 9.8 9.3 7.9 88 0.9 CALM 0 0 0 0 1022.5 1021.5 0.2
28/07:30pm 10.1 9.6 8.0 87 1.0 CALM 0 0 0 0 1022.5 1021.5 0.2
28/07:00pm 10.8 10.1 8.4 85 1.2 NE 2 6 1 3 1022.5 1021.5 0.2
28/06:30pm 11.3 10.2 8.5 83 1.4 ENE 4 6 2 3 1022.4 1021.3 0.2
28/06:00pm 11.9 10.9 8.7 81 1.6 ENE 4 7 2 4 1022.6 1021.6 0.2
28/05:30pm 12.7 11.6 8.6 76 2.1 E 4 7 2 4 1022.8 1021.8 0.2
28/05:00pm 12.8 11.8 8.7 76 2.1 E 4 7 2 4 1022.9 1021.9 0.2
28/04:30pm 12.4 12.1 8.5 77 2.0 CALM 0 2 0 1 1023.3 1022.2 0.2
28/04:00pm 12.0 11.4 8.8 81 1.6 NNW 2 6 1 3 1023.6 1022.5 0.2
28/03:30pm 11.9 10.8 8.4 79 1.8 NW 4 7 2 4 1023.8 1022.7 0.2
28/03:00pm 12.4 12.1 10.1 86 1.2 WNW 2 6 1 3 1024.0 1022.9 0.2
28/02:30pm 11.2 10.7 9.3 88 1.0 W 2 4 1 2 1024.2 1023.2 0.2

Latest Capital City Observations: Canberra | Sydney | Melbourne | Brisbane | Adelaide | Perth | Hobart | Darwin

Other Formats:

Comma delimited format used in spreadsheet applications
http://www.bom.gov.au/fwo/IDV60901/IDV60901.94872.axf

JavaScript Object Notation format (JSON) in row-major order
http://www.bom.gov.au/fwo/IDV60901/IDV60901.94872.json